sensor_id;sensor_type;location;lat;lon;timestamp;pressure;altitude;pressure_sealevel;temperature;humidity
78615;BME280;67937;52.488;20.952;2023-04-01T00:00:52;98690.34;;;9.39;88.63
78615;BME280;67937;52.488;20.952;2023-04-01T00:03:21;98684.91;;;9.37;88.71
78615;BME280;67937;52.488;20.952;2023-04-01T00:05:50;98686.55;;;9.33;88.83
78615;BME280;67937;52.488;20.952;2023-04-01T00:08:18;98682.41;;;9.34;88.89
78615;BME280;67937;52.488;20.952;2023-04-01T00:10:46;98683.25;;;9.36;88.85
78615;BME280;67937;52.488;20.952;2023-04-01T00:13:14;98682.30;;;9.33;88.97
78615;BME280;67937;52.488;20.952;2023-04-01T00:15:43;98684.58;;;9.33;89.05
78615;BME280;67937;52.488;20.952;2023-04-01T00:18:21;98682.99;;;9.37;89.10
78615;BME280;67937;52.488;20.952;2023-04-01T00:21:02;98682.10;;;9.32;89.14
78615;BME280;67937;52.488;20.952;2023-04-01T00:23:30;98683.92;;;9.33;89.36
78615;BME280;67937;52.488;20.952;2023-04-01T00:26:00;98679.86;;;9.29;89.52
78615;BME280;67937;52.488;20.952;2023-04-01T00:28:29;98685.55;;;9.27;89.71
78615;BME280;67937;52.488;20.952;2023-04-01T00:30:57;98680.04;;;9.22;89.83
78615;BME280;67937;52.488;20.952;2023-04-01T00:33:25;98676.67;;;9.26;89.77
78615;BME280;67937;52.488;20.952;2023-04-01T00:35:54;98679.18;;;9.22;89.91
78615;BME280;67937;52.488;20.952;2023-04-01T00:38:22;98674.95;;;9.21;90.03
78615;BME280;67937;52.488;20.952;2023-04-01T00:40:50;98678.16;;;9.25;89.81
78615;BME280;67937;52.488;20.952;2023-04-01T00:43:24;98673.37;;;9.22;89.77
78615;BME280;67937;52.488;20.952;2023-04-01T00:45:53;98677.15;;;9.21;90.13
78615;BME280;67937;52.488;20.952;2023-04-01T00:48:30;98673.13;;;9.18;90.16
78615;BME280;67937;52.488;20.952;2023-04-01T00:51:02;98673.66;;;9.18;90.13
78615;BME280;67937;52.488;20.952;2023-04-01T00:53:34;98667.38;;;9.12;90.03
78615;BME280;67937;52.488;20.952;2023-04-01T00:56:10;98663.73;;;9.13;90.03
78615;BME280;67937;52.488;20.952;2023-04-01T00:58:44;98666.95;;;9.11;90.17
78615;BME280;67937;52.488;20.952;2023-04-01T01:01:14;98665.61;;;9.14;90.01
78615;BME280;67937;52.488;20.952;2023-04-01T01:03:42;98666.19;;;9.17;90.10
78615;BME280;67937;52.488;20.952;2023-04-01T01:11:48;98664.38;;;9.17;89.97
78615;BME280;67937;52.488;20.952;2023-04-01T01:16:52;98658.58;;;9.17;89.89
78615;BME280;67937;52.488;20.952;2023-04-01T01:31:36;98646.67;;;9.22;89.57
78615;BME280;67937;52.488;20.952;2023-04-01T01:33:57;98650.70;;;9.15;89.48
78615;BME280;67937;52.488;20.952;2023-04-01T01:36:31;98655.48;;;9.15;89.67
78615;BME280;67937;52.488;20.952;2023-04-01T01:39:04;98658.20;;;9.23;89.60
78615;BME280;67937;52.488;20.952;2023-04-01T01:41:34;98656.00;;;9.29;89.31
78615;BME280;67937;52.488;20.952;2023-04-01T01:44:05;98651.79;;;9.15;89.68
78615;BME280;67937;52.488;20.952;2023-04-01T01:46:35;98656.36;;;9.11;89.87
78615;BME280;67937;52.488;20.952;2023-04-01T01:49:07;98661.33;;;9.14;89.69
78615;BME280;67937;52.488;20.952;2023-04-01T01:51:36;98661.70;;;9.12;89.81
78615;BME280;67937;52.488;20.952;2023-04-01T01:54:05;98653.79;;;9.05;90.09
78615;BME280;67937;52.488;20.952;2023-04-01T01:56:34;98656.36;;;9.08;89.94
78615;BME280;67937;52.488;20.952;2023-04-01T01:59:06;98652.39;;;9.10;89.82
78615;BME280;67937;52.488;20.952;2023-04-01T02:01:41;98652.18;;;9.05;89.91
78615;BME280;67937;52.488;20.952;2023-04-01T02:04:13;98651.60;;;9.06;89.96
78615;BME280;67937;52.488;20.952;2023-04-01T02:06:50;98648.13;;;9.05;89.85
78615;BME280;67937;52.488;20.952;2023-04-01T02:09:20;98650.38;;;9.04;90.02
78615;BME280;67937;52.488;20.952;2023-04-01T02:12:04;98647.27;;;9.09;89.84
78615;BME280;67937;52.488;20.952;2023-04-01T02:14:41;98645.70;;;9.01;89.95
78615;BME280;67937;52.488;20.952;2023-04-01T02:17:20;98642.10;;;9.08;89.90
78615;BME280;67937;52.488;20.952;2023-04-01T02:19:57;98647.52;;;9.08;89.74
78615;BME280;67937;52.488;20.952;2023-04-01T02:22:28;98644.33;;;9.10;89.79
78615;BME280;67937;52.488;20.952;2023-04-01T02:25:00;98638.55;;;9.01;89.99
78615;BME280;67937;52.488;20.952;2023-04-01T02:27:30;98637.07;;;8.98;90.14
78615;BME280;67937;52.488;20.952;2023-04-01T02:29:59;98637.91;;;8.97;90.23
78615;BME280;67937;52.488;20.952;2023-04-01T02:32:28;98634.50;;;8.94;90.23
78615;BME280;67937;52.488;20.952;2023-04-01T02:34:57;98630.92;;;8.96;90.23
78615;BME280;67937;52.488;20.952;2023-04-01T02:37:26;98631.86;;;8.96;90.21
78615;BME280;67937;52.488;20.952;2023-04-01T02:39:59;98629.52;;;9.03;90.10
78615;BME280;67937;52.488;20.952;2023-04-01T02:42:28;98628.14;;;9.08;89.87
78615;BME280;67937;52.488;20.952;2023-04-01T02:44:56;98627.78;;;9.07;89.85
78615;BME280;67937;52.488;20.952;2023-04-01T02:47:24;98629.99;;;9.08;89.75
78615;BME280;67937;52.488;20.952;2023-04-01T02:49:52;98625.23;;;9.08;89.72
78615;BME280;67937;52.488;20.952;2023-04-01T02:52:25;98626.89;;;9.03;89.80
78615;BME280;67937;52.488;20.952;2023-04-01T02:54:53;98626.65;;;9.02;89.80
78615;BME280;67937;52.488;20.952;2023-04-01T02:57:21;98624.91;;;9.00;89.83
78615;BME280;67937;52.488;20.952;2023-04-01T02:59:49;98619.30;;;8.98;89.90
78615;BME280;67937;52.488;20.952;2023-04-01T03:02:17;98622.90;;;8.99;89.88
78615;BME280;67937;52.488;20.952;2023-04-01T03:04:46;98629.73;;;9.07;89.84
78615;BME280;67937;52.488;20.952;2023-04-01T03:07:14;98632.16;;;9.10;89.56
78615;BME280;67937;52.488;20.952;2023-04-01T03:09:42;98636.13;;;9.15;89.45
78615;BME280;67937;52.488;20.952;2023-04-01T03:12:10;98634.52;;;9.12;89.42
78615;BME280;67937;52.488;20.952;2023-04-01T03:14:38;98639.86;;;9.07;89.60
78615;BME280;67937;52.488;20.952;2023-04-01T03:17:06;98638.88;;;9.10;89.54
78615;BME280;67937;52.488;20.952;2023-04-01T03:19:34;98635.44;;;9.04;89.54
78615;BME280;67937;52.488;20.952;2023-04-01T03:22:02;98642.46;;;9.04;89.66
78615;BME280;67937;52.488;20.952;2023-04-01T03:24:30;98638.60;;;8.99;89.70
78615;BME280;67937;52.488;20.952;2023-04-01T03:26:58;98641.58;;;9.00;89.75
78615;BME280;67937;52.488;20.952;2023-04-01T03:29:26;98645.14;;;9.00;89.80
78615;BME280;67937;52.488;20.952;2023-04-01T03:31:54;98644.30;;;9.03;89.79
78615;BME280;67937;52.488;20.952;2023-04-01T03:34:25;98644.41;;;9.04;89.73
78615;BME280;67937;52.488;20.952;2023-04-01T03:36:53;98649.89;;;9.05;89.76
78615;BME280;67937;52.488;20.952;2023-04-01T03:39:21;98646.61;;;9.03;89.83
78615;BME280;67937;52.488;20.952;2023-04-01T03:41:49;98651.21;;;9.05;89.96
78615;BME280;67937;52.488;20.952;2023-04-01T03:44:17;98651.59;;;9.03;90.07
78615;BME280;67937;52.488;20.952;2023-04-01T03:46:45;98655.17;;;8.95;90.17
78615;BME280;67937;52.488;20.952;2023-04-01T03:49:13;98653.96;;;8.91;90.23
78615;BME280;67937;52.488;20.952;2023-04-01T03:51:43;98657.90;;;8.92;90.16
78615;BME280;67937;52.488;20.952;2023-04-01T03:54:11;98653.41;;;8.89;90.17
78615;BME280;67937;52.488;20.952;2023-04-01T03:56:39;98662.21;;;8.95;90.18
78615;BME280;67937;52.488;20.952;2023-04-01T03:59:07;98661.60;;;8.94;90.14
78615;BME280;67937;52.488;20.952;2023-04-01T04:01:36;98663.30;;;8.98;90.06
78615;BME280;67937;52.488;20.952;2023-04-01T04:04:04;98662.64;;;9.06;89.85
78615;BME280;67937;52.488;20.952;2023-04-01T04:06:32;98666.26;;;9.05;89.91
78615;BME280;67937;52.488;20.952;2023-04-01T04:09:01;98670.39;;;9.06;89.80
78615;BME280;67937;52.488;20.952;2023-04-01T04:11:30;98672.98;;;9.03;89.86
78615;BME280;67937;52.488;20.952;2023-04-01T04:13:59;98670.45;;;8.99;90.01
78615;BME280;67937;52.488;20.952;2023-04-01T04:16:28;98676.77;;;9.00;89.99
78615;BME280;67937;52.488;20.952;2023-04-01T04:18:56;98678.50;;;9.06;89.88
78615;BME280;67937;52.488;20.952;2023-04-01T04:21:24;98681.28;;;9.10;89.85
78615;BME280;67937;52.488;20.952;2023-04-01T04:23:52;98681.52;;;9.11;90.01
78615;BME280;67937;52.488;20.952;2023-04-01T04:26:21;98682.25;;;9.13;89.87
78615;BME280;67937;52.488;20.952;2023-04-01T04:28:49;98683.23;;;9.12;89.81
78615;BME280;67937;52.488;20.952;2023-04-01T04:31:21;98683.35;;;9.12;89.79
78615;BME280;67937;52.488;20.952;2023-04-01T04:33:49;98683.44;;;9.13;89.83
78615;BME280;67937;52.488;20.952;2023-04-01T04:36:18;98682.95;;;9.05;90.06
78615;BME280;67937;52.488;20.952;2023-04-01T04:38:47;98686.23;;;9.12;90.03
78615;BME280;67937;52.488;20.952;2023-04-01T04:41:17;98685.71;;;9.08;90.13
78615;BME280;67937;52.488;20.952;2023-04-01T04:43:49;98688.52;;;9.10;90.18
78615;BME280;67937;52.488;20.952;2023-04-01T04:46:19;98689.48;;;9.18;89.97
78615;BME280;67937;52.488;20.952;2023-04-01T04:48:47;98691.06;;;9.13;90.00
78615;BME280;67937;52.488;20.952;2023-04-01T04:51:17;98693.98;;;9.22;89.88
78615;BME280;67937;52.488;20.952;2023-04-01T04:53:45;98695.69;;;9.17;89.91
78615;BME280;67937;52.488;20.952;2023-04-01T04:56:18;98699.55;;;9.07;90.23
78615;BME280;67937;52.488;20.952;2023-04-01T04:58:46;98694.53;;;9.17;90.19
78615;BME280;67937;52.488;20.952;2023-04-01T05:01:16;98693.27;;;9.22;89.92
78615;BME280;67937;52.488;20.952;2023-04-01T05:03:44;98692.02;;;9.38;89.25
78615;BME280;67937;52.488;20.952;2023-04-01T05:06:14;98695.45;;;9.12;89.51
78615;BME280;67937;52.488;20.952;2023-04-01T05:08:44;98696.42;;;9.17;89.91
78615;BME280;67937;52.488;20.952;2023-04-01T05:11:14;98692.38;;;9.22;89.64
78615;BME280;67937;52.488;20.952;2023-04-01T05:13:43;98696.57;;;9.14;89.82
78615;BME280;67937;52.488;20.952;2023-04-01T05:16:14;98696.88;;;9.09;89.94
78615;BME280;67937;52.488;20.952;2023-04-01T05:18:43;98699.91;;;9.09;89.98
78615;BME280;67937;52.488;20.952;2023-04-01T05:21:12;98702.80;;;9.08;90.19
78615;BME280;67937;52.488;20.952;2023-04-01T05:23:41;98701.30;;;9.10;90.17
78615;BME280;67937;52.488;20.952;2023-04-01T05:26:13;98703.44;;;9.08;90.08
78615;BME280;67937;52.488;20.952;2023-04-01T05:28:41;98702.83;;;9.07;90.03
78615;BME280;67937;52.488;20.952;2023-04-01T05:31:09;98706.76;;;9.11;90.02
78615;BME280;67937;52.488;20.952;2023-04-01T05:33:37;98705.17;;;9.07;89.98
78615;BME280;67937;52.488;20.952;2023-04-01T05:36:09;98703.31;;;9.06;89.97
78615;BME280;67937;52.488;20.952;2023-04-01T05:38:38;98703.98;;;9.05;90.06
78615;BME280;67937;52.488;20.952;2023-04-01T05:41:06;98708.86;;;9.03;90.01
78615;BME280;67937;52.488;20.952;2023-04-01T05:43:38;98713.18;;;9.02;90.09
78615;BME280;67937;52.488;20.952;2023-04-01T05:46:07;98712.69;;;8.96;90.03
78615;BME280;67937;52.488;20.952;2023-04-01T05:48:35;98711.06;;;8.95;90.17
78615;BME280;67937;52.488;20.952;2023-04-01T05:51:03;98707.41;;;9.00;90.15
78615;BME280;67937;52.488;20.952;2023-04-01T05:53:31;98706.39;;;9.03;90.05
78615;BME280;67937;52.488;20.952;2023-04-01T05:56:03;98705.42;;;8.99;90.33
78615;BME280;67937;52.488;20.952;2023-04-01T05:58:31;98706.66;;;9.04;90.34
78615;BME280;67937;52.488;20.952;2023-04-01T06:01:04;98705.11;;;9.13;90.19
78615;BME280;67937;52.488;20.952;2023-04-01T06:03:33;98710.00;;;9.15;89.95
78615;BME280;67937;52.488;20.952;2023-04-01T06:06:01;98714.91;;;9.15;89.88
78615;BME280;67937;52.488;20.952;2023-04-01T06:08:31;98717.33;;;9.21;89.33
78615;BME280;67937;52.488;20.952;2023-04-01T06:16:20;98716.11;;;9.23;89.72
78615;BME280;67937;52.488;20.952;2023-04-01T06:18:55;98718.42;;;9.20;89.29
78615;BME280;67937;52.488;20.952;2023-04-01T06:26:50;98724.54;;;9.24;89.31
78615;BME280;67937;52.488;20.952;2023-04-01T06:37:27;98735.14;;;9.33;88.53
78615;BME280;67937;52.488;20.952;2023-04-01T06:43:20;98736.38;;;9.31;87.80
78615;BME280;67937;52.488;20.952;2023-04-01T06:45:55;98739.59;;;9.20;88.31
78615;BME280;67937;52.488;20.952;2023-04-01T06:48:33;98738.70;;;9.22;88.51
78615;BME280;67937;52.488;20.952;2023-04-01T06:54:24;98737.30;;;9.24;88.78
78615;BME280;67937;52.488;20.952;2023-04-01T06:56:54;98732.64;;;9.42;88.80
78615;BME280;67937;52.488;20.952;2023-04-01T06:59:28;98731.44;;;9.52;88.72
78615;BME280;67937;52.488;20.952;2023-04-01T07:04:45;98735.23;;;9.72;88.60
78615;BME280;67937;52.488;20.952;2023-04-01T07:07:21;98735.93;;;9.77;88.32
78615;BME280;67937;52.488;20.952;2023-04-01T07:09:52;98742.50;;;9.85;87.91
78615;BME280;67937;52.488;20.952;2023-04-01T07:14:58;98747.45;;;9.91;86.95
78615;BME280;67937;52.488;20.952;2023-04-01T07:17:32;98743.69;;;9.96;86.75
78615;BME280;67937;52.488;20.952;2023-04-01T07:20:09;98746.23;;;9.95;86.42
78615;BME280;67937;52.488;20.952;2023-04-01T07:22:48;98742.26;;;10.04;85.91
78615;BME280;67937;52.488;20.952;2023-04-01T07:25:20;98738.75;;;10.04;86.74
78615;BME280;67937;52.488;20.952;2023-04-01T07:27:50;98745.43;;;10.15;85.56
78615;BME280;67937;52.488;20.952;2023-04-01T07:30:20;98744.78;;;10.16;86.18
78615;BME280;67937;52.488;20.952;2023-04-01T07:32:54;98744.95;;;10.28;85.75
78615;BME280;67937;52.488;20.952;2023-04-01T07:35:32;98742.40;;;10.27;85.74
78615;BME280;67937;52.488;20.952;2023-04-01T07:40:48;98739.55;;;10.40;84.28
78615;BME280;67937;52.488;20.952;2023-04-01T07:46:27;98738.54;;;10.43;83.42
78615;BME280;67937;52.488;20.952;2023-04-01T07:51:44;98741.51;;;10.40;83.95
78615;BME280;67937;52.488;20.952;2023-04-01T07:54:32;98738.95;;;10.33;83.96
78615;BME280;67937;52.488;20.952;2023-04-01T07:57:23;98738.27;;;10.24;84.51
78615;BME280;67937;52.488;20.952;2023-04-01T08:02:43;98740.27;;;10.05;84.97
78615;BME280;67937;52.488;20.952;2023-04-01T08:11:09;98750.36;;;10.15;85.87
78615;BME280;67937;52.488;20.952;2023-04-01T08:13:52;98749.34;;;10.33;85.64
78615;BME280;67937;52.488;20.952;2023-04-01T08:16:57;98751.74;;;10.46;85.31
78615;BME280;67937;52.488;20.952;2023-04-01T08:19:51;98754.00;;;10.58;84.60
78615;BME280;67937;52.488;20.952;2023-04-01T08:22:33;98751.73;;;10.50;85.30
78615;BME280;67937;52.488;20.952;2023-04-01T08:25:09;98759.45;;;10.48;85.42
78615;BME280;67937;52.488;20.952;2023-04-01T08:27:43;98761.14;;;10.49;85.74
78615;BME280;67937;52.488;20.952;2023-04-01T08:30:23;98763.67;;;10.46;85.94
78615;BME280;67937;52.488;20.952;2023-04-01T08:33:01;98767.61;;;10.53;85.30
78615;BME280;67937;52.488;20.952;2023-04-01T08:41:07;98764.20;;;10.43;84.90
78615;BME280;67937;52.488;20.952;2023-04-01T08:44:04;98761.33;;;10.33;85.13
78615;BME280;67937;52.488;20.952;2023-04-01T08:55:22;98771.48;;;10.39;85.54
78615;BME280;67937;52.488;20.952;2023-04-01T09:07:39;98782.25;;;10.20;85.38
78615;BME280;67937;52.488;20.952;2023-04-01T09:39:37;98795.07;;;10.38;84.63
78615;BME280;67937;52.488;20.952;2023-04-01T09:44:56;98797.06;;;10.76;83.88
78615;BME280;67937;52.488;20.952;2023-04-01T09:50:35;98801.43;;;10.88;82.36
78615;BME280;67937;52.488;20.952;2023-04-01T10:01:45;98806.55;;;10.85;81.40
78615;BME280;67937;52.488;20.952;2023-04-01T10:30:07;98805.78;;;10.69;81.36
78615;BME280;67937;52.488;20.952;2023-04-01T10:43:57;98814.59;;;10.64;81.41
78615;BME280;67937;52.488;20.952;2023-04-01T10:52:48;98820.34;;;10.68;80.97
78615;BME280;67937;52.488;20.952;2023-04-01T10:55:37;98814.96;;;10.69;81.46
78615;BME280;67937;52.488;20.952;2023-04-01T11:04:44;98823.09;;;10.79;78.97
78615;BME280;67937;52.488;20.952;2023-04-01T11:18:47;98832.33;;;11.01;79.61
78615;BME280;67937;52.488;20.952;2023-04-01T11:27:29;98830.55;;;11.02;79.44
78615;BME280;67937;52.488;20.952;2023-04-01T11:33:20;98832.78;;;11.02;80.12
78615;BME280;67937;52.488;20.952;2023-04-01T11:44:24;98837.23;;;11.00;79.03
78615;BME280;67937;52.488;20.952;2023-04-01T11:47:15;98836.59;;;10.86;79.53
78615;BME280;67937;52.488;20.952;2023-04-01T11:58:42;98844.69;;;10.53;79.44
78615;BME280;67937;52.488;20.952;2023-04-01T12:01:40;98846.06;;;10.55;79.79
78615;BME280;67937;52.488;20.952;2023-04-01T12:18:05;98854.84;;;10.26;82.97
78615;BME280;67937;52.488;20.952;2023-04-01T12:32:30;98866.49;;;10.53;84.11
78615;BME280;67937;52.488;20.952;2023-04-01T12:54:44;98878.81;;;10.57;84.35
78615;BME280;67937;52.488;20.952;2023-04-01T13:05:25;98888.35;;;10.70;83.87
78615;BME280;67937;52.488;20.952;2023-04-01T13:13:21;98899.81;;;10.84;83.53
78615;BME280;67937;52.488;20.952;2023-04-01T13:19:16;98907.52;;;10.81;83.83
78615;BME280;67937;52.488;20.952;2023-04-01T13:25:58;98917.13;;;10.80;83.74
78615;BME280;67937;52.488;20.952;2023-04-01T13:28:29;98919.39;;;10.72;83.74
78615;BME280;67937;52.488;20.952;2023-04-01T13:31:25;98922.09;;;10.65;83.93
78615;BME280;67937;52.488;20.952;2023-04-01T13:42:30;98936.84;;;10.15;84.26
78615;BME280;67937;52.488;20.952;2023-04-01T13:45:12;98940.77;;;10.11;84.26
78615;BME280;67937;52.488;20.952;2023-04-01T13:47:57;98944.15;;;10.05;84.37
78615;BME280;67937;52.488;20.952;2023-04-01T14:10:19;98976.52;;;9.72;84.94
78615;BME280;67937;52.488;20.952;2023-04-01T14:24:51;98984.27;;;9.66;85.02
78615;BME280;67937;52.488;20.952;2023-04-01T14:30:26;98985.95;;;9.69;84.81
78615;BME280;67937;52.488;20.952;2023-04-01T14:33:41;98986.55;;;9.68;84.76
78615;BME280;67937;52.488;20.952;2023-04-01T14:42:02;98992.81;;;9.64;84.53
78615;BME280;67937;52.488;20.952;2023-04-01T14:47:53;99002.94;;;9.63;84.58
78615;BME280;67937;52.488;20.952;2023-04-01T14:50:27;99009.83;;;9.64;84.40
78615;BME280;67937;52.488;20.952;2023-04-01T14:53:16;99011.42;;;9.59;84.47
78615;BME280;67937;52.488;20.952;2023-04-01T14:55:57;99020.75;;;9.59;84.73
78615;BME280;67937;52.488;20.952;2023-04-01T14:58:46;99020.34;;;9.60;84.66
78615;BME280;67937;52.488;20.952;2023-04-01T15:09:14;99025.48;;;9.70;84.64
78615;BME280;67937;52.488;20.952;2023-04-01T15:17:05;99037.50;;;9.71;84.18
78615;BME280;67937;52.488;20.952;2023-04-01T15:30:58;99063.30;;;9.45;84.59
78615;BME280;67937;52.488;20.952;2023-04-01T15:36:34;99070.10;;;9.38;84.31
78615;BME280;67937;52.488;20.952;2023-04-01T15:39:13;99073.13;;;9.32;84.36
78615;BME280;67937;52.488;20.952;2023-04-01T16:01:51;99101.05;;;9.18;84.49
78615;BME280;67937;52.488;20.952;2023-04-01T16:07:43;99113.16;;;9.19;84.34
78615;BME280;67937;52.488;20.952;2023-04-01T16:12:48;99124.46;;;9.16;84.42
78615;BME280;67937;52.488;20.952;2023-04-01T16:23:47;99139.58;;;9.03;84.16
78615;BME280;67937;52.488;20.952;2023-04-01T16:29:07;99153.91;;;8.94;84.44
78615;BME280;67937;52.488;20.952;2023-04-01T16:32:33;99158.21;;;8.96;84.24
78615;BME280;67937;52.488;20.952;2023-04-01T16:40:41;99171.17;;;8.85;84.36
78615;BME280;67937;52.488;20.952;2023-04-01T16:43:25;99172.33;;;8.82;84.29
78615;BME280;67937;52.488;20.952;2023-04-01T16:51:15;99188.34;;;8.68;84.14
78615;BME280;67937;52.488;20.952;2023-04-01T16:53:48;99197.56;;;8.63;84.33
78615;BME280;67937;52.488;20.952;2023-04-01T16:56:24;99207.61;;;8.63;84.32
78615;BME280;67937;52.488;20.952;2023-04-01T17:01:52;99217.71;;;8.56;84.11
78615;BME280;67937;52.488;20.952;2023-04-01T17:16:15;99242.23;;;8.38;84.32
78615;BME280;67937;52.488;20.952;2023-04-01T17:19:04;99248.73;;;8.32;84.26
78615;BME280;67937;52.488;20.952;2023-04-01T17:27:13;99260.26;;;8.23;84.27
78615;BME280;67937;52.488;20.952;2023-04-01T17:35:22;99271.39;;;8.17;84.24
78615;BME280;67937;52.488;20.952;2023-04-01T17:47:11;99281.54;;;8.04;84.50
78615;BME280;67937;52.488;20.952;2023-04-01T18:15:08;99329.38;;;7.87;84.71
78615;BME280;67937;52.488;20.952;2023-04-01T18:20:54;99337.70;;;7.86;84.68
78615;BME280;67937;52.488;20.952;2023-04-01T18:26:23;99346.39;;;7.83;84.71
78615;BME280;67937;52.488;20.952;2023-04-01T18:32:31;99356.09;;;7.80;84.68
78615;BME280;67937;52.488;20.952;2023-04-01T18:35:17;99359.68;;;7.79;84.80
78615;BME280;67937;52.488;20.952;2023-04-01T18:38:07;99365.62;;;7.81;84.84
78615;BME280;67937;52.488;20.952;2023-04-01T18:41:07;99366.91;;;7.81;84.78
78615;BME280;67937;52.488;20.952;2023-04-01T18:47:20;99367.86;;;7.80;84.50
78615;BME280;67937;52.488;20.952;2023-04-01T18:52:56;99380.55;;;7.82;84.65
78615;BME280;67937;52.488;20.952;2023-04-01T18:55:37;99384.38;;;7.82;84.55
78615;BME280;67937;52.488;20.952;2023-04-01T18:58:34;99388.85;;;7.79;84.62
78615;BME280;67937;52.488;20.952;2023-04-01T19:03:51;99395.73;;;7.78;84.56
78615;BME280;67937;52.488;20.952;2023-04-01T19:09:27;99406.38;;;7.77;84.47
78615;BME280;67937;52.488;20.952;2023-04-01T19:20:16;99419.41;;;7.64;84.48
78615;BME280;67937;52.488;20.952;2023-04-01T19:30:59;99429.59;;;7.58;84.56
78615;BME280;67937;52.488;20.952;2023-04-01T19:36:56;99436.03;;;7.52;84.54
78615;BME280;67937;52.488;20.952;2023-04-01T19:42:20;99448.05;;;7.47;84.64
78615;BME280;67937;52.488;20.952;2023-04-01T19:45:03;99451.89;;;7.45;84.78
78615;BME280;67937;52.488;20.952;2023-04-01T19:50:31;99458.46;;;7.42;84.91
78615;BME280;67937;52.488;20.952;2023-04-01T19:53:18;99460.53;;;7.44;84.86
78615;BME280;67937;52.488;20.952;2023-04-01T19:55:55;99465.05;;;7.40;84.70
78615;BME280;67937;52.488;20.952;2023-04-01T19:59:00;99468.29;;;7.39;84.58
78615;BME280;67937;52.488;20.952;2023-04-01T20:01:35;99472.77;;;7.32;84.72
78615;BME280;67937;52.488;20.952;2023-04-01T20:04:29;99477.02;;;7.27;84.69
78615;BME280;67937;52.488;20.952;2023-04-01T20:10:06;99484.31;;;7.19;84.45
78615;BME280;67937;52.488;20.952;2023-04-01T20:15:34;99485.89;;;7.17;84.48
78615;BME280;67937;52.488;20.952;2023-04-01T20:18:18;99489.63;;;7.16;84.55
78615;BME280;67937;52.488;20.952;2023-04-01T20:23:42;99492.90;;;7.17;84.45
78615;BME280;67937;52.488;20.952;2023-04-01T20:26:13;99496.05;;;7.17;84.42
78615;BME280;67937;52.488;20.952;2023-04-01T20:29:02;99494.39;;;7.16;84.28
78615;BME280;67937;52.488;20.952;2023-04-01T20:31:42;99496.63;;;7.14;84.20
78615;BME280;67937;52.488;20.952;2023-04-01T20:34:22;99498.08;;;7.12;84.44
78615;BME280;67937;52.488;20.952;2023-04-01T20:37:23;99500.84;;;7.14;84.24
78615;BME280;67937;52.488;20.952;2023-04-01T20:42:51;99506.11;;;7.12;84.15
78615;BME280;67937;52.488;20.952;2023-04-01T20:50:59;99517.59;;;7.09;83.99
78615;BME280;67937;52.488;20.952;2023-04-01T20:53:50;99519.44;;;7.08;84.01
78615;BME280;67937;52.488;20.952;2023-04-01T21:02:24;99525.27;;;7.05;83.99
78615;BME280;67937;52.488;20.952;2023-04-01T21:07:41;99530.52;;;7.05;83.83
78615;BME280;67937;52.488;20.952;2023-04-01T21:29:41;99553.64;;;6.96;83.44
78615;BME280;67937;52.488;20.952;2023-04-01T21:35:32;99560.31;;;6.89;83.43
78615;BME280;67937;52.488;20.952;2023-04-01T21:57:18;99593.42;;;6.67;83.13
78615;BME280;67937;52.488;20.952;2023-04-01T22:05:20;99600.16;;;6.61;82.88
78615;BME280;67937;52.488;20.952;2023-04-01T22:08:48;99600.80;;;6.60;83.06
78615;BME280;67937;52.488;20.952;2023-04-01T22:11:03;99601.04;;;6.61;83.03
78615;BME280;67937;52.488;20.952;2023-04-01T22:13:49;99605.48;;;6.60;83.04
78615;BME280;67937;52.488;20.952;2023-04-01T22:19:15;99607.39;;;6.63;82.85
78615;BME280;67937;52.488;20.952;2023-04-01T22:22:08;99608.39;;;6.59;82.99
78615;BME280;67937;52.488;20.952;2023-04-01T22:24:46;99613.89;;;6.58;83.01
78615;BME280;67937;52.488;20.952;2023-04-01T22:32:46;99623.66;;;6.56;82.66
78615;BME280;67937;52.488;20.952;2023-04-01T22:40:36;99625.92;;;6.57;82.57
78615;BME280;67937;52.488;20.952;2023-04-01T22:43:11;99626.60;;;6.52;82.46
78615;BME280;67937;52.488;20.952;2023-04-01T22:45:58;99629.33;;;6.53;82.45
78615;BME280;67937;52.488;20.952;2023-04-01T22:48:45;99628.88;;;6.50;82.59
78615;BME280;67937;52.488;20.952;2023-04-01T22:51:18;99628.66;;;6.50;82.41
78615;BME280;67937;52.488;20.952;2023-04-01T22:54:18;99629.35;;;6.48;82.49
78615;BME280;67937;52.488;20.952;2023-04-01T22:56:59;99632.75;;;6.47;82.52
78615;BME280;67937;52.488;20.952;2023-04-01T23:02:16;99639.80;;;6.44;82.51
78615;BME280;67937;52.488;20.952;2023-04-01T23:04:54;99643.85;;;6.42;82.71
78615;BME280;67937;52.488;20.952;2023-04-01T23:07:45;99645.41;;;6.39;82.61
78615;BME280;67937;52.488;20.952;2023-04-01T23:10:30;99650.66;;;6.42;82.75
78615;BME280;67937;52.488;20.952;2023-04-01T23:13:14;99651.63;;;6.41;82.69
78615;BME280;67937;52.488;20.952;2023-04-01T23:15:44;99651.04;;;6.37;82.78
78615;BME280;67937;52.488;20.952;2023-04-01T23:18:25;99652.95;;;6.37;82.86
78615;BME280;67937;52.488;20.952;2023-04-01T23:26:51;99664.48;;;6.42;82.78
78615;BME280;67937;52.488;20.952;2023-04-01T23:29:15;99666.95;;;6.39;82.97
78615;BME280;67937;52.488;20.952;2023-04-01T23:31:49;99669.02;;;6.38;83.12
78615;BME280;67937;52.488;20.952;2023-04-01T23:34:27;99673.52;;;6.41;82.90
78615;BME280;67937;52.488;20.952;2023-04-01T23:37:01;99673.62;;;6.42;82.94
78615;BME280;67937;52.488;20.952;2023-04-01T23:39:33;99678.13;;;6.40;82.99
78615;BME280;67937;52.488;20.952;2023-04-01T23:42:12;99680.13;;;6.39;83.06
78615;BME280;67937;52.488;20.952;2023-04-01T23:44:42;99682.38;;;6.42;82.83
78615;BME280;67937;52.488;20.952;2023-04-01T23:47:15;99681.29;;;6.40;82.79
78615;BME280;67937;52.488;20.952;2023-04-01T23:49:55;99684.98;;;6.35;82.98
78615;BME280;67937;52.488;20.952;2023-04-01T23:52:30;99686.95;;;6.34;82.89
78615;BME280;67937;52.488;20.952;2023-04-01T23:55:18;99693.36;;;6.33;82.76
